createdAt,value
2022-10-19T00:01:29.792Z,89.08
2022-10-19T00:04:00.596Z,89.01
2022-10-19T00:06:33.030Z,89.03
2022-10-19T00:09:10.962Z,88.85
2022-10-19T00:11:42.191Z,88.63
2022-10-19T00:14:17.861Z,89.10
2022-10-19T00:16:48.311Z,89.14
2022-10-19T00:19:20.526Z,88.98
2022-10-19T00:24:23.310Z,88.93
2022-10-19T00:26:51.739Z,89.13
2022-10-19T00:29:23.297Z,89.17
2022-10-19T00:31:52.693Z,88.99
2022-10-19T00:34:21.794Z,89.33
2022-10-19T00:36:50.380Z,89.56
2022-10-19T00:39:19.851Z,89.38
2022-10-19T00:41:51.090Z,89.58
2022-10-19T00:44:19.815Z,89.81
2022-10-19T00:46:53.784Z,89.56
2022-10-19T00:49:29.676Z,89.68
2022-10-19T00:52:15.490Z,89.62
2022-10-19T00:54:47.327Z,89.59
2022-10-19T00:57:16.471Z,89.94
2022-10-19T00:59:46.896Z,90.03
2022-10-19T01:02:15.900Z,90.07
2022-10-19T01:04:49.872Z,89.88
2022-10-19T01:07:19.348Z,89.85
2022-10-19T01:09:48.017Z,89.78
2022-10-19T01:12:16.414Z,90.01
2022-10-19T01:15:13.195Z,89.95
2022-10-19T01:18:10.814Z,89.88
2022-10-19T01:21:23.143Z,89.90
2022-10-19T01:24:18.841Z,90.02
2022-10-19T01:27:14.857Z,90.10
2022-10-19T01:30:11.028Z,89.87
2022-10-19T01:33:00.219Z,90.09
2022-10-19T01:35:47.056Z,89.96
2022-10-19T01:38:21.149Z,90.02
2022-10-19T01:40:59.014Z,89.80
2022-10-19T01:43:30.844Z,90.08
2022-10-19T01:46:24.450Z,89.86
2022-10-19T01:48:59.589Z,89.99
2022-10-19T01:51:32.915Z,90.20
2022-10-19T01:54:13.462Z,90.05
2022-10-19T01:56:46.272Z,90.23
2022-10-19T01:59:19.123Z,89.93
2022-10-19T02:01:49.952Z,90.07
2022-10-19T02:04:22.137Z,89.86
2022-10-19T02:06:53.912Z,90.32
2022-10-19T02:09:22.799Z,90.03
2022-10-19T02:11:57.371Z,90.28
2022-10-19T02:14:33.763Z,90.16
2022-10-19T02:17:07.329Z,90.13
2022-10-19T02:19:35.925Z,90.29
2022-10-19T02:22:05.193Z,90.01
2022-10-19T02:24:33.941Z,90.18
2022-10-19T02:27:06.270Z,90.26
2022-10-19T02:29:37.033Z,89.92
2022-10-19T02:32:06.440Z,89.69
2022-10-19T02:34:36.352Z,89.95
2022-10-19T02:37:05.654Z,89.68
2022-10-19T02:39:35.001Z,89.57
2022-10-19T02:42:28.803Z,89.59
2022-10-19T02:45:10.144Z,89.73
2022-10-19T02:47:45.888Z,89.80
2022-10-19T02:50:15.388Z,89.89
2022-10-19T02:52:44.026Z,89.79
2022-10-19T02:55:12.906Z,89.90
2022-10-19T02:57:41.448Z,90.21
2022-10-19T03:00:11.014Z,90.53
2022-10-19T03:02:42.245Z,90.31
2022-10-19T03:05:11.225Z,90.10
2022-10-19T03:07:40.394Z,89.59
2022-10-19T03:10:09.134Z,89.66
2022-10-19T03:12:37.780Z,88.98
2022-10-19T03:15:11.779Z,88.75
2022-10-19T03:17:40.406Z,88.55
2022-10-19T03:20:09.668Z,87.79
2022-10-19T03:22:38.316Z,86.39
2022-10-19T03:25:07.312Z,85.79
2022-10-19T03:27:36.227Z,85.34
2022-10-19T03:30:05.714Z,85.30
2022-10-19T03:32:37.387Z,85.09
2022-10-19T03:35:08.887Z,84.72
2022-10-19T03:37:37.606Z,85.44
2022-10-19T03:40:06.620Z,85.82
2022-10-19T03:42:35.593Z,85.71
2022-10-19T03:45:07.670Z,85.76
2022-10-19T03:47:36.692Z,85.49
2022-10-19T03:50:07.370Z,86.16
2022-10-19T03:52:36.650Z,85.90
2022-10-19T03:55:05.649Z,85.83
2022-10-19T03:57:34.359Z,86.92
2022-10-19T04:00:03.550Z,86.46
2022-10-19T04:02:40.232Z,86.29
2022-10-19T04:05:09.122Z,86.48
2022-10-19T04:07:37.551Z,86.16
2022-10-19T04:10:06.472Z,85.86
2022-10-19T04:12:35.154Z,86.42
2022-10-19T04:15:03.852Z,86.80
2022-10-19T04:17:32.760Z,87.30
2022-10-19T04:20:01.612Z,87.65
2022-10-19T04:22:30.077Z,87.55
2022-10-19T04:24:58.755Z,86.71
2022-10-19T04:27:27.288Z,86.70
2022-10-19T04:29:56.123Z,85.57
2022-10-19T04:32:24.559Z,86.52
2022-10-19T04:34:53.102Z,86.41
2022-10-19T04:37:21.853Z,86.14
2022-10-19T04:39:52.664Z,86.24
2022-10-19T04:42:21.305Z,86.31
2022-10-19T04:44:50.096Z,86.08
2022-10-19T04:47:19.832Z,86.03
2022-10-19T04:49:48.493Z,86.00
2022-10-19T04:52:17.631Z,85.85
2022-10-19T04:54:47.132Z,85.76
2022-10-19T04:57:15.754Z,85.71
2022-10-19T04:59:44.251Z,86.25
2022-10-19T05:02:15.233Z,86.09
2022-10-19T05:04:45.171Z,86.37
2022-10-19T05:07:13.787Z,86.34
2022-10-19T05:09:42.709Z,86.62
2022-10-19T05:12:11.390Z,85.90
2022-10-19T05:14:42.638Z,85.84
2022-10-19T05:17:17.433Z,86.02
2022-10-19T05:19:46.136Z,86.30
2022-10-19T05:22:14.791Z,86.13
2022-10-19T05:24:45.499Z,86.24
2022-10-19T05:27:14.293Z,85.75
2022-10-19T05:29:42.854Z,86.20
2022-10-19T05:32:11.375Z,86.26
2022-10-19T05:34:40.234Z,85.87
2022-10-19T05:37:08.831Z,85.92
2022-10-19T05:39:37.525Z,85.97
2022-10-19T05:42:06.235Z,85.73
2022-10-19T05:44:35.295Z,85.51
2022-10-19T05:47:04.216Z,85.73
2022-10-19T05:49:32.766Z,85.54
2022-10-19T05:52:01.665Z,84.96
2022-10-19T05:54:30.345Z,85.18
2022-10-19T05:56:58.983Z,84.91
2022-10-19T05:59:27.534Z,84.72
2022-10-19T06:01:56.241Z,84.84
2022-10-19T06:04:25.004Z,84.22
2022-10-19T06:06:53.555Z,84.14
2022-10-19T06:09:22.297Z,83.45
2022-10-19T06:11:50.853Z,83.75
2022-10-19T06:14:19.466Z,83.38
2022-10-19T06:16:48.137Z,82.12
2022-10-19T06:19:16.761Z,82.30
2022-10-19T06:21:46.566Z,83.19
2022-10-19T06:24:15.555Z,82.53
2022-10-19T06:26:43.978Z,81.59
2022-10-19T06:29:12.625Z,80.69
2022-10-19T06:31:41.257Z,79.12
2022-10-19T06:34:10.082Z,78.96
2022-10-19T06:36:38.628Z,78.68
2022-10-19T06:39:07.326Z,77.79
2022-10-19T06:41:35.993Z,77.00
2022-10-19T06:44:19.993Z,76.44
2022-10-19T06:46:48.712Z,76.66
2022-10-19T06:49:17.260Z,76.27
2022-10-19T06:51:45.943Z,76.56
2022-10-19T06:54:14.356Z,75.92
2022-10-19T06:56:43.100Z,75.08
2022-10-19T06:59:14.787Z,74.09
2022-10-19T07:01:43.712Z,74.66
2022-10-19T07:04:12.601Z,74.39
2022-10-19T07:06:41.366Z,73.39
2022-10-19T07:09:09.967Z,74.32
2022-10-19T07:11:41.355Z,73.50
2022-10-19T07:14:14.327Z,72.99
2022-10-19T07:16:42.846Z,71.97
2022-10-19T07:19:12.552Z,71.87
2022-10-19T07:21:42.644Z,71.67
2022-10-19T07:24:11.163Z,70.75
2022-10-19T07:26:39.962Z,71.05
2022-10-19T07:29:08.575Z,71.94
2022-10-19T07:31:37.186Z,70.86
2022-10-19T07:34:06.710Z,70.97
2022-10-19T07:36:38.033Z,70.33
2022-10-19T07:39:08.434Z,68.87
2022-10-19T07:41:37.146Z,68.75
2022-10-19T07:44:07.467Z,67.97
2022-10-19T07:46:37.863Z,66.92
2022-10-19T07:49:13.904Z,66.93
2022-10-19T07:51:42.701Z,67.63
2022-10-19T07:54:11.551Z,66.59
2022-10-19T07:56:40.771Z,67.05
2022-10-19T07:59:10.875Z,67.50
2022-10-19T08:01:45.615Z,66.70
2022-10-19T08:04:55.451Z,67.62
2022-10-19T08:07:02.987Z,68.98
2022-10-19T08:09:51.919Z,68.72
2022-10-19T08:12:20.323Z,68.13
2022-10-19T08:14:48.960Z,67.08
2022-10-19T08:17:18.203Z,67.20
2022-10-19T08:19:47.828Z,67.06
2022-10-19T08:22:16.589Z,66.34
2022-10-19T08:24:45.342Z,66.29
2022-10-19T08:27:15.589Z,66.14
2022-10-19T08:29:44.327Z,66.30
2022-10-19T08:32:13.051Z,66.12
2022-10-19T08:34:42.040Z,65.04
2022-10-19T08:37:20.178Z,65.83
2022-10-19T08:39:54.872Z,66.55
2022-10-19T08:42:51.189Z,65.39
2022-10-19T08:45:29.300Z,66.02
2022-10-19T08:48:11.351Z,66.14
2022-10-19T08:50:45.116Z,65.57
2022-10-19T08:53:36.671Z,64.08
2022-10-19T08:56:49.527Z,64.31
2022-10-19T08:59:25.153Z,63.94
2022-10-19T09:01:56.608Z,64.59
2022-10-19T09:04:27.379Z,65.28
2022-10-19T09:06:57.797Z,65.10
2022-10-19T09:09:29.676Z,65.22
2022-10-19T09:12:06.429Z,64.40
2022-10-19T09:15:05.954Z,64.82
2022-10-19T09:17:35.622Z,64.53
2022-10-19T09:20:38.143Z,63.83
2022-10-19T09:23:30.437Z,63.00
2022-10-19T09:25:59.231Z,62.59
2022-10-19T09:28:49.235Z,62.84
2022-10-19T09:31:31.479Z,62.01
2022-10-19T09:34:22.063Z,63.25
2022-10-19T09:36:54.684Z,62.48
2022-10-19T09:39:27.066Z,62.91
2022-10-19T09:42:08.592Z,63.75
2022-10-19T09:44:37.511Z,63.74
2022-10-19T09:47:41.661Z,63.68
2022-10-19T09:50:22.922Z,64.41
2022-10-19T09:53:04.967Z,64.36
2022-10-19T09:55:44.342Z,64.40
2022-10-19T09:58:16.092Z,64.51
2022-10-19T10:00:47.774Z,64.59
2022-10-19T10:03:40.200Z,64.41
2022-10-19T10:06:18.520Z,63.23
2022-10-19T10:08:53.464Z,63.65
2022-10-19T10:11:30.080Z,64.03
2022-10-19T10:14:05.039Z,62.17
2022-10-19T10:16:37.532Z,61.70
2022-10-19T10:19:13.941Z,61.62
2022-10-19T10:21:53.605Z,61.45
2022-10-19T10:24:31.070Z,61.99
2022-10-19T10:27:06.019Z,62.67
2022-10-19T10:29:38.555Z,62.69
2022-10-19T10:32:09.606Z,62.53
2022-10-19T10:34:51.279Z,62.03
2022-10-19T10:37:40.983Z,62.16
2022-10-19T10:40:39.636Z,62.51
2022-10-19T10:43:16.666Z,62.47
2022-10-19T10:45:49.450Z,61.98
2022-10-19T10:48:31.796Z,62.25
2022-10-19T10:51:02.860Z,62.49
2022-10-19T10:53:39.926Z,62.55
2022-10-19T10:56:24.649Z,61.29
2022-10-19T10:59:01.571Z,62.31
2022-10-19T11:01:42.388Z,62.52
2022-10-19T11:04:27.307Z,60.31
2022-10-19T11:07:06.112Z,61.45
2022-10-19T11:09:43.435Z,61.98
2022-10-19T11:12:17.168Z,61.48
2022-10-19T11:15:18.217Z,60.95
2022-10-19T11:18:25.642Z,62.00
2022-10-19T11:21:27.813Z,61.45
2022-10-19T11:24:05.920Z,61.82
2022-10-19T11:26:58.114Z,63.12
2022-10-19T11:29:51.903Z,62.60
2022-10-19T11:32:33.416Z,61.33
2022-10-19T11:35:13.745Z,62.10
2022-10-19T11:38:20.413Z,62.68
2022-10-19T11:41:18.307Z,63.14
2022-10-19T11:44:06.105Z,63.05
2022-10-19T11:47:13.618Z,62.98
2022-10-19T11:52:58.726Z,62.97
2022-10-19T11:55:57.104Z,63.48
2022-10-19T11:58:44.477Z,63.90
2022-10-19T12:01:37.698Z,63.33
2022-10-19T12:04:33.952Z,63.63
2022-10-19T12:07:08.485Z,63.27
2022-10-19T12:09:59.974Z,64.08
2022-10-19T12:12:37.083Z,63.93
2022-10-19T12:15:41.307Z,63.67
2022-10-19T12:18:28.278Z,63.56
2022-10-19T12:21:03.290Z,64.40
2022-10-19T12:23:38.412Z,63.75
2022-10-19T12:26:11.435Z,64.25
2022-10-19T12:28:47.944Z,63.84
2022-10-19T12:31:19.109Z,64.39
2022-10-19T12:34:01.945Z,64.24
2022-10-19T12:36:48.967Z,64.32
2022-10-19T12:39:32.278Z,64.07
2022-10-19T12:42:25.885Z,63.96
2022-10-19T12:45:06.722Z,65.00
2022-10-19T12:47:35.932Z,64.23
2022-10-19T12:50:06.225Z,64.29
2022-10-19T12:53:00.948Z,64.18
2022-10-19T12:55:35.968Z,64.93
2022-10-19T12:58:25.799Z,66.41
2022-10-19T13:01:05.719Z,67.33
2022-10-19T13:03:47.578Z,67.80
2022-10-19T13:06:19.980Z,68.36
2022-10-19T13:08:54.867Z,69.08
2022-10-19T13:11:24.526Z,69.77
2022-10-19T13:14:16.159Z,70.29
2022-10-19T13:17:02.195Z,70.23
2022-10-19T13:19:34.711Z,70.32
2022-10-19T13:22:03.880Z,70.64
2022-10-19T13:24:36.299Z,70.15
2022-10-19T13:27:05.030Z,70.19
2022-10-19T13:29:39.832Z,70.44
2022-10-19T13:32:30.445Z,71.83
2022-10-19T13:35:27.330Z,72.35
2022-10-19T13:38:17.242Z,73.48
2022-10-19T13:40:52.075Z,74.13
2022-10-19T13:43:31.268Z,74.62
2022-10-19T13:46:14.542Z,75.43
2022-10-19T13:49:07.519Z,76.00
2022-10-19T13:51:42.267Z,76.38
2022-10-19T13:54:29.479Z,76.88
2022-10-19T13:57:13.478Z,77.46
2022-10-19T14:00:03.814Z,78.09
2022-10-19T14:02:52.496Z,78.23
2022-10-19T14:05:33.512Z,79.72
2022-10-19T14:08:27.345Z,80.83
2022-10-19T14:11:14.254Z,80.52
2022-10-19T14:13:43.775Z,80.70
2022-10-19T14:16:23.838Z,81.26
2022-10-19T14:18:57.661Z,81.36
2022-10-19T14:21:38.154Z,81.78
2022-10-19T14:24:22.939Z,81.71
2022-10-19T14:26:51.710Z,81.78
2022-10-19T14:29:23.156Z,82.14
2022-10-19T14:31:54.363Z,82.58
2022-10-19T14:34:23.720Z,82.33
2022-10-19T14:36:53.021Z,82.64
2022-10-19T14:39:35.506Z,83.18
2022-10-19T14:42:07.027Z,82.97
2022-10-19T14:44:45.850Z,83.28
2022-10-19T14:47:31.231Z,83.47
2022-10-19T14:50:00.342Z,83.10
2022-10-19T14:52:40.951Z,83.29
2022-10-19T14:55:17.961Z,83.32
2022-10-19T14:57:51.990Z,83.32
2022-10-19T15:00:24.130Z,83.29
2022-10-19T15:03:06.913Z,83.83
2022-10-19T15:05:42.579Z,83.72
2022-10-19T15:08:43.563Z,83.92
2022-10-19T15:11:44.936Z,84.09
2022-10-19T15:14:22.870Z,83.83
2022-10-19T15:16:58.568Z,84.28
2022-10-19T15:19:41.666Z,84.20
2022-10-19T15:22:10.209Z,84.62
2022-10-19T15:24:41.207Z,84.57
2022-10-19T15:27:19.308Z,84.41
2022-10-19T15:29:59.636Z,84.83
2022-10-19T15:32:36.456Z,84.71
2022-10-19T15:35:27.744Z,84.80
2022-10-19T15:38:11.872Z,84.91
2022-10-19T15:40:43.479Z,84.82
2022-10-19T15:43:36.111Z,85.34
2022-10-19T15:46:14.288Z,85.27
2022-10-19T15:48:45.289Z,85.08
2022-10-19T15:51:46.569Z,85.51
2022-10-19T15:54:18.032Z,85.62
2022-10-19T15:56:51.324Z,85.38
2022-10-19T15:59:22.444Z,85.63
2022-10-19T16:01:54.960Z,85.66
2022-10-19T16:04:24.897Z,85.90
2022-10-19T16:06:53.964Z,86.03
2022-10-19T16:09:23.728Z,85.90
2022-10-19T16:11:57.411Z,86.11
2022-10-19T16:14:27.746Z,86.04
2022-10-19T16:16:59.830Z,86.08
2022-10-19T16:19:28.494Z,86.32
2022-10-19T16:21:57.106Z,86.20
2022-10-19T16:24:26.112Z,86.17
2022-10-19T16:26:54.631Z,86.20
2022-10-19T16:29:26.734Z,86.15
2022-10-19T16:31:57.842Z,86.21
2022-10-19T16:34:26.259Z,85.82
2022-10-19T16:36:55.580Z,86.03
2022-10-19T16:39:26.177Z,86.01
2022-10-19T16:41:55.178Z,86.21
2022-10-19T16:44:23.929Z,85.99
2022-10-19T16:46:52.846Z,86.06
2022-10-19T16:49:21.866Z,85.77
2022-10-19T16:51:56.449Z,85.69
2022-10-19T16:54:33.552Z,85.74
2022-10-19T16:57:05.773Z,85.60
2022-10-19T16:59:37.752Z,85.20
2022-10-19T17:02:06.528Z,85.49
2022-10-19T17:04:35.590Z,85.26
2022-10-19T17:07:04.396Z,85.17
2022-10-19T17:09:42.149Z,84.94
2022-10-19T17:12:14.731Z,84.80
2022-10-19T17:14:43.831Z,84.65
2022-10-19T17:17:12.671Z,84.67
2022-10-19T17:19:42.234Z,84.73
2022-10-19T17:22:10.850Z,84.47
2022-10-19T17:24:40.374Z,84.29
2022-10-19T17:27:09.450Z,83.91
2022-10-19T17:29:38.132Z,84.00
2022-10-19T17:32:06.949Z,84.00
2022-10-19T17:34:35.429Z,84.00
2022-10-19T17:37:04.208Z,84.18
2022-10-19T17:39:32.948Z,84.24
2022-10-19T17:42:03.848Z,84.26
2022-10-19T17:44:32.468Z,84.25
2022-10-19T17:47:02.033Z,84.04
2022-10-19T17:49:30.888Z,84.19
2022-10-19T17:52:00.914Z,84.44
2022-10-19T17:54:30.760Z,84.21
2022-10-19T17:57:02.790Z,84.57
2022-10-19T17:59:46.691Z,84.32
2022-10-19T18:02:23.807Z,84.48
2022-10-19T18:04:52.910Z,83.87
2022-10-19T18:07:22.836Z,84.08
2022-10-19T18:09:53.253Z,84.09
2022-10-19T18:12:24.789Z,83.94
2022-10-19T18:14:53.490Z,84.33
2022-10-19T18:17:24.176Z,84.00
2022-10-19T18:19:56.073Z,84.46
2022-10-19T18:22:27.011Z,84.88
2022-10-19T18:24:55.991Z,84.72
2022-10-19T18:27:24.929Z,84.85
2022-10-19T18:29:53.718Z,84.68
2022-10-19T18:32:22.572Z,85.13
2022-10-19T18:34:51.527Z,84.45
2022-10-19T18:37:20.332Z,84.60
2022-10-19T18:39:49.103Z,84.73
2022-10-19T18:42:18.618Z,84.96
2022-10-19T18:44:49.909Z,84.86
2022-10-19T18:47:20.215Z,85.29
2022-10-19T18:49:49.512Z,85.09
2022-10-19T18:52:19.280Z,85.10
2022-10-19T18:54:48.188Z,85.20
2022-10-19T18:57:16.980Z,85.30
2022-10-19T18:59:45.762Z,85.25
2022-10-19T19:02:22.241Z,85.01
2022-10-19T19:04:51.964Z,85.19
2022-10-19T19:07:21.049Z,85.27
2022-10-19T19:09:52.151Z,85.29
2022-10-19T19:12:21.947Z,85.30
2022-10-19T19:14:50.750Z,85.50
2022-10-19T19:17:19.480Z,85.53
2022-10-19T19:19:48.413Z,85.47
2022-10-19T19:22:18.583Z,85.22
2022-10-19T19:24:51.068Z,85.48
2022-10-19T19:27:22.489Z,85.44
2022-10-19T19:29:55.452Z,85.69
2022-10-19T19:32:24.374Z,85.58
2022-10-19T19:34:54.868Z,85.67
2022-10-19T19:37:25.181Z,85.83
2022-10-19T19:39:54.308Z,85.99
2022-10-19T19:42:27.658Z,85.63
2022-10-19T19:44:56.689Z,85.85
2022-10-19T19:47:25.510Z,85.84
2022-10-19T19:49:55.050Z,86.17
2022-10-19T19:52:24.030Z,86.14
2022-10-19T19:54:52.969Z,86.08
2022-10-19T19:57:23.186Z,86.16
2022-10-19T19:59:52.067Z,86.03
2022-10-19T20:02:23.466Z,86.13
2022-10-19T20:04:52.591Z,85.93
2022-10-19T20:07:21.490Z,86.25
2022-10-19T20:09:50.349Z,86.09
2022-10-19T20:12:19.236Z,86.45
2022-10-19T20:14:47.987Z,86.35
2022-10-19T20:17:16.909Z,86.37
2022-10-19T20:19:45.899Z,86.52
2022-10-19T20:22:15.266Z,86.40
2022-10-19T20:24:44.030Z,86.33
2022-10-19T20:27:12.930Z,86.55
2022-10-19T20:29:41.578Z,86.70
2022-10-19T20:32:10.528Z,86.68
2022-10-19T20:34:39.615Z,86.71
2022-10-19T20:37:08.247Z,86.90
2022-10-19T20:39:37.855Z,86.86
2022-10-19T20:42:07.555Z,86.80
2022-10-19T20:44:37.432Z,86.93
2022-10-19T20:47:05.967Z,86.51
2022-10-19T20:49:37.705Z,86.60
2022-10-19T20:52:06.530Z,86.96
2022-10-19T20:54:36.595Z,86.95
2022-10-19T20:57:05.169Z,87.00
2022-10-19T20:59:34.150Z,87.02
2022-10-19T21:02:03.125Z,87.09
2022-10-19T21:04:32.295Z,86.82
2022-10-19T21:07:01.737Z,87.41
2022-10-19T21:09:30.529Z,87.21
2022-10-19T21:11:59.972Z,86.69
2022-10-19T21:14:31.412Z,87.17
2022-10-19T21:17:01.724Z,87.13
2022-10-19T21:19:31.781Z,87.02
2022-10-19T21:22:03.459Z,87.12
2022-10-19T21:24:34.958Z,87.30
2022-10-19T21:27:07.346Z,87.09
2022-10-19T21:29:37.431Z,87.14
2022-10-19T21:32:06.930Z,86.93
2022-10-19T21:34:36.403Z,87.16
2022-10-19T21:37:05.433Z,87.30
2022-10-19T21:39:34.664Z,87.23
2022-10-19T21:42:03.762Z,87.29
2022-10-19T21:44:32.985Z,87.07
2022-10-19T21:47:01.999Z,86.88
2022-10-19T21:49:31.050Z,86.74
2022-10-19T21:51:59.983Z,87.03
2022-10-19T21:54:30.048Z,87.16
2022-10-19T21:57:02.169Z,87.03
2022-10-19T21:59:31.105Z,87.24
2022-10-19T22:02:00.485Z,87.03
2022-10-19T22:04:30.163Z,87.07
2022-10-19T22:07:00.371Z,87.11
2022-10-19T22:09:28.993Z,87.02
2022-10-19T22:11:57.716Z,87.24
2022-10-19T22:14:26.509Z,87.24
2022-10-19T22:16:55.452Z,87.04
2022-10-19T22:19:24.348Z,87.03
2022-10-19T22:21:52.892Z,87.04
2022-10-19T22:24:21.535Z,86.88
2022-10-19T22:26:51.317Z,86.96
2022-10-19T22:29:20.143Z,87.39
2022-10-19T22:31:48.745Z,87.19
2022-10-19T22:34:18.203Z,87.65
2022-10-19T22:36:47.076Z,87.01
2022-10-19T22:39:16.143Z,87.17
2022-10-19T22:41:44.764Z,87.06
2022-10-19T22:44:13.415Z,87.16
2022-10-19T22:46:42.159Z,86.71
2022-10-19T22:49:10.980Z,87.27
2022-10-19T22:51:39.817Z,87.34
2022-10-19T22:54:08.646Z,87.36
2022-10-19T22:56:39.626Z,87.21
2022-10-19T22:59:09.803Z,87.41
2022-10-19T23:01:38.967Z,87.53
2022-10-19T23:04:07.722Z,87.48
2022-10-19T23:06:36.280Z,87.10
2022-10-19T23:09:05.218Z,87.10
2022-10-19T23:11:34.146Z,87.36
2022-10-19T23:14:02.948Z,87.36
2022-10-19T23:16:31.819Z,87.49
2022-10-19T23:19:00.839Z,87.30
2022-10-19T23:21:29.531Z,87.36
2022-10-19T23:23:58.671Z,87.55
2022-10-19T23:26:29.406Z,87.72
2022-10-19T23:28:58.416Z,87.57
2022-10-19T23:31:30.856Z,87.43
2022-10-19T23:34:02.615Z,87.67
2022-10-19T23:36:31.688Z,87.63
2022-10-19T23:39:00.520Z,87.65
2022-10-19T23:41:29.334Z,87.82
2022-10-19T23:43:58.382Z,88.02
2022-10-19T23:46:27.324Z,88.06
2022-10-19T23:48:56.396Z,88.09
2022-10-19T23:51:25.467Z,87.90
2022-10-19T23:53:54.498Z,88.14
2022-10-19T23:56:31.394Z,88.17
2022-10-19T23:59:00.330Z,87.96
